Skip to main content

NOAA/GLERL Met Station at Muskegon, MI

Previous 5 days (top of hour only)
See also Previous 3 Hours (2 minute increments)
Jump down to Data
Switch to [English][Metric]
Zoom: Click and drag, Pan: shift-click and drag, Unzoom: double-click, Unzoom All






Note: Speed = mean wind during 2-minute period at top of hour,
Gust = max wind during 2-minute period at top of hour,
Peak = max wind during entire hour.
• See also 5-day windrose plot


NOAA/GLERL Met Station at Muskegon, MI

Previous 5 days (top of hour only)
See also Previous 3 Hours (2 minute increments)
Jump up to Graphs
Switch to [English][Metric]
                  Wind  Wind  Wind   Air   Dew   Rel     Sta   PAR
                   Spd   Gst   Dir  Temp    Pt   Hum    Pres uE/m2/
YYYY-MM-DD   EDT   kts   kts   deg     F     F     %   in Hg   sec
2019-04-20 03:00  11.3  14.2    54  40.3  25.6  55.4   29.21     2
2019-04-20 02:00  12.6  15.4    50  41.4  26.0  54.0   29.22     2
2019-04-20 01:00  10.3  13.8    36  41.7  27.3  56.2   29.24     2
2019-04-20 00:00   7.4   8.9    41  43.7  27.7  52.9   29.24     2
2019-04-19 23:00   8.6  12.6    29  45.7  27.5  48.7   29.24     2
2019-04-19 22:00  12.1  16.3    43  48.2  27.6  44.4   29.22     2
2019-04-19 21:00   9.1  12.2    39  50.0  30.0  45.7   29.21     2
2019-04-19 20:00  15.4  18.7    51  53.1  30.9  42.4   29.20   606
2019-04-19 19:00  11.3  15.9    62  53.6  32.3  43.9   29.19  1454
2019-04-19 18:00  13.4  17.7    60  54.7  31.5  40.9   29.19  1897
2019-04-19 17:00  15.7  22.9   356  46.2  36.1  67.5   29.18  1961
2019-04-19 16:00   3.9   8.2    60  51.6  35.5  53.8   29.20  1579
2019-04-19 15:00  17.3  21.6    46  51.3  34.2  51.7   29.19  1046
2019-04-19 14:00  14.8  18.5    29  48.9  35.2  58.8   29.21  1581
2019-04-19 13:00  13.0  16.3    33  46.4  35.3  64.8   29.22  1177
2019-04-19 12:00  11.1  16.3    50  44.6  35.2  69.3   29.22   971
2019-04-19 11:00  14.2  19.4    56  43.3  34.7  71.3   29.19   505
2019-04-19 10:00  12.4  16.3    55  41.9  35.1  76.5   29.18   281
2019-04-19 09:00  10.3  14.8    39  41.4  35.6  79.6   29.17   150
2019-04-19 08:00  10.7  14.8    39  40.8  35.7  81.6   29.16    58
2019-04-19 07:00   9.7  13.6    41  40.5  35.6  82.5   29.11     4
2019-04-19 06:00  10.9  13.2    41  40.5  35.7  82.8   29.10     2
2019-04-19 05:00   6.6   8.7    41  40.3  35.7  83.5   29.10     2
2019-04-19 04:00   7.6  10.1    38  40.3  35.6  83.1   29.10     2
2019-04-19 03:00   8.2   9.9    36  40.1  35.8  84.4   29.11     2
2019-04-19 02:00  11.1  13.2    30  40.1  36.2  85.7   29.11     2
2019-04-19 01:00   7.0   9.7    12  39.7  37.3  90.9   29.11     2
2019-04-19 00:00   7.4  13.6    14  39.9  36.8  88.4   29.11     2
2019-04-18 23:00   9.7  12.8    17  40.1  36.5  86.8   29.12     2
2019-04-18 22:00  12.2  15.6   360  39.7  37.3  90.8   29.14     2
2019-04-18 21:00  16.9  20.6   356  39.2  38.7  98.2   29.11     2
2019-04-18 20:00  12.4  14.2   346  39.2  38.2  96.3   29.11    48
2019-04-18 19:00  12.4  14.4   344  39.2  38.4  97.0   29.09   214
2019-04-18 18:00  14.6  16.3   348  38.8  38.3  97.8   29.05   244
2019-04-18 17:00  16.9  19.2   340  39.0  39.0  99.9   29.03   440
2019-04-18 16:00  16.3  19.1   336  39.0  39.0  99.8   29.01   723
2019-04-18 15:00  14.8  15.7   347  39.4  39.3  99.8   28.98   749
2019-04-18 14:00  14.8  17.1   343  40.5  40.4  99.9   28.95   321
2019-04-18 13:00  12.4  13.6   350  40.6  40.6  99.8   28.95   247
2019-04-18 12:00  12.4  14.0   339  40.5  40.4  99.8   28.97   235
2019-04-18 11:00   5.8   6.2   290  41.5  41.5  99.8   28.93   160
2019-04-18 10:00   3.7   4.7   231  41.5  41.5  99.9   28.93   199
2019-04-18 09:00   4.7   5.2   205  43.2  43.1  99.8   28.93    56
2019-04-18 08:00   6.0   7.0   194  43.0  42.9  99.8   28.93    33
2019-04-18 07:00   5.6   6.6   191  42.8  42.8  99.9   28.91     4
2019-04-18 06:00  15.9  18.1   213  44.2  44.2  99.9   28.90     2
2019-04-18 05:00  11.9  14.0   232  44.8  44.8  99.9   28.92     2
2019-04-18 04:00  21.8  22.6   219  45.9  45.4  98.1   28.89     2
2019-04-18 03:00  18.3  20.0   212  45.1  43.5  93.9   28.90     2
2019-04-18 02:00  22.6  24.3   201  46.6  42.4  85.3   28.88     2
2019-04-18 01:00  25.1  26.2   202  50.7  44.9  80.1   28.91     2
2019-04-18 00:00  25.5  29.0   188  56.5  48.3  73.8   28.92     2
2019-04-17 23:00  17.9  21.8   167  61.0  51.1  69.5   28.95     2
2019-04-17 22:00  12.8  19.2   161  61.0  51.5  70.6   28.97     2
2019-04-17 21:00  11.3  13.6   136  59.0  49.9  71.6   29.00     2
2019-04-17 20:00  11.5  14.2   115  56.3  47.9  73.1   29.03    65
2019-04-17 19:00  11.9  14.4   119  55.8  47.0  72.2   29.05   349
2019-04-17 18:00  15.6  19.8   107  54.7  46.3  73.0   29.09   580
2019-04-17 17:00  11.7  15.0   111  53.6  45.6  74.0   29.14   583
2019-04-17 16:00  12.6  14.8   101  52.3  44.4  74.2   29.16  1202
2019-04-17 15:00  12.1  16.1   121  51.4  43.6  74.2   29.22   997
2019-04-17 14:00  15.9  21.8   122  49.1  42.6  77.9   29.23  1134
2019-04-17 13:00  16.9  20.4   119  48.6  42.2  78.3   29.28  1054
2019-04-17 12:00  19.2  23.7   100  47.1  41.5  80.7   29.30  1036
2019-04-17 11:00  15.6  20.6   106  45.7  41.2  84.1   29.33  1294
2019-04-17 10:00  17.7  21.6   101  43.5  40.4  88.6   29.35   613
2019-04-17 09:00  15.0  19.4   105  42.4  40.6  93.0   29.38   467
2019-04-17 08:00   9.5  12.6   117  42.1  41.0  96.0   29.40   123
2019-04-17 07:00  13.0  17.9   107  42.3  41.3  96.4   29.38     7
2019-04-17 06:00  12.6  16.5   114  42.1  41.1  96.4   29.38     2
2019-04-17 05:00  15.2  18.1   100  42.1  41.2  96.8   29.39     2
2019-04-17 04:00  17.5  20.2   105  42.4  41.6  96.7   29.39     2
2019-04-17 03:00  14.8  19.6   107  43.0  42.0  96.2   29.40     2
2019-04-17 02:00  11.3  17.5   104  43.2  41.7  94.5   29.39     2
2019-04-17 01:00  10.9  13.8   107  43.7  41.6  92.2   29.39     2
2019-04-17 00:00   9.3  12.6    91  45.5  42.2  88.0   29.38     2
2019-04-16 23:00  10.1  13.0    87  47.5  43.0  84.3   29.38     2
2019-04-16 22:00   8.9  10.1    71  49.3  45.1  85.3   29.38     2
2019-04-16 21:00  10.1  12.6    70  48.6  45.6  89.4   29.35     2
2019-04-16 20:00   8.4  10.5   355  41.9  39.4  90.7   29.33   122
2019-04-16 19:00  10.1  10.9   351  42.4  38.5  85.8   29.33   496
2019-04-16 18:00  12.1  12.2   348  44.1  38.8  81.4   29.32  1341
2019-04-16 17:00   4.9   5.4   325  46.6  40.2  78.3   29.31   960
2019-04-16 16:00   2.3   3.5   263  46.6  39.2  75.2   29.31  1408
2019-04-16 15:00   4.5   5.8   232  45.7  39.0  77.3   29.31  1578
2019-04-16 14:00  10.1  11.1   201  46.9  40.0  76.6   29.30  1988
2019-04-16 13:00  15.7  16.9   194  48.4  41.5  76.8   29.29  1505
2019-04-16 12:00   8.7  10.9   178  48.7  44.2  84.1   29.32  1913
2019-04-16 11:00  10.1  11.3   182  45.5  42.0  87.4   29.32   289
2019-04-16 10:00  10.7  13.6   171  42.6  41.4  95.2   29.33   142
2019-04-16 09:00   9.3  11.7   116  40.1  38.5  93.9   29.33    68
2019-04-16 08:00   9.3  10.7   111  39.7  36.3  87.2   29.34    30
2019-04-16 07:00   9.3  10.9   112  40.3  34.6  79.8   29.33     3
2019-04-16 06:00   9.7  11.9    98  41.4  32.7  71.0   29.33     2
2019-04-16 05:00   9.3  10.9   115  42.1  27.7  56.4   29.33     2
2019-04-16 04:00   9.5  11.5   142  41.5  25.9  53.4   29.33     2
2019-04-16 03:00   5.8   6.8   157  41.4  24.3  50.3   29.37     2
2019-04-16 02:00   6.0   7.6   131  40.3  24.7  53.5   29.39     2
2019-04-16 01:00   7.2   8.0   175  39.7  24.0  53.0   29.41     2
2019-04-16 00:00   4.1   5.1   132  39.6  22.9  51.0   29.41     2
2019-04-15 23:00   3.7   5.1   150  38.1  24.7  58.0   29.41     2
2019-04-15 22:00   4.1   4.9   140  37.2  25.4  62.1   29.41     2
2019-04-15 21:00   5.6   7.2   163  37.0  28.4  70.6   29.40     2
2019-04-15 20:00   8.0   9.5   184  36.7  31.7  81.9   29.42   127